sensor_id;sensor_type;location;lat;lon;timestamp;P1;durP1;ratioP1;P2;durP2;ratioP2
24409;SDS011;12543;53.364;-1.504;2023-02-15T00:00:06;37.60;;;27.50;;
24409;SDS011;12543;53.364;-1.504;2023-02-15T00:02:37;36.55;;;24.92;;
24409;SDS011;12543;53.364;-1.504;2023-02-15T00:05:05;36.70;;;26.95;;
24409;SDS011;12543;53.364;-1.504;2023-02-15T00:07:32;39.05;;;27.35;;
24409;SDS011;12543;53.364;-1.504;2023-02-15T00:09:59;36.13;;;26.48;;
24409;SDS011;12543;53.364;-1.504;2023-02-15T00:12:27;33.28;;;25.23;;
24409;SDS011;12543;53.364;-1.504;2023-02-15T00:14:54;39.10;;;26.88;;
24409;SDS011;12543;53.364;-1.504;2023-02-15T00:17:21;36.90;;;26.60;;
24409;SDS011;12543;53.364;-1.504;2023-02-15T00:19:48;35.03;;;26.55;;
24409;SDS011;12543;53.364;-1.504;2023-02-15T00:22:16;34.63;;;25.05;;
24409;SDS011;12543;53.364;-1.504;2023-02-15T00:24:43;34.33;;;24.70;;
24409;SDS011;12543;53.364;-1.504;2023-02-15T00:27:10;34.20;;;26.08;;
24409;SDS011;12543;53.364;-1.504;2023-02-15T00:29:38;36.03;;;26.40;;
24409;SDS011;12543;53.364;-1.504;2023-02-15T00:32:05;36.78;;;25.73;;
24409;SDS011;12543;53.364;-1.504;2023-02-15T00:34:32;36.65;;;25.85;;
24409;SDS011;12543;53.364;-1.504;2023-02-15T00:36:59;34.22;;;24.30;;
24409;SDS011;12543;53.364;-1.504;2023-02-15T00:39:26;34.13;;;25.80;;
24409;SDS011;12543;53.364;-1.504;2023-02-15T00:41:55;33.10;;;24.38;;
24409;SDS011;12543;53.364;-1.504;2023-02-15T00:44:22;34.50;;;25.65;;
24409;SDS011;12543;53.364;-1.504;2023-02-15T00:46:49;36.25;;;25.58;;
24409;SDS011;12543;53.364;-1.504;2023-02-15T00:49:16;34.17;;;24.13;;
24409;SDS011;12543;53.364;-1.504;2023-02-15T00:51:44;32.08;;;24.15;;
24409;SDS011;12543;53.364;-1.504;2023-02-15T00:54:11;35.83;;;25.42;;
24409;SDS011;12543;53.364;-1.504;2023-02-15T00:56:38;36.80;;;26.52;;
24409;SDS011;12543;53.364;-1.504;2023-02-15T00:59:05;34.83;;;25.40;;
24409;SDS011;12543;53.364;-1.504;2023-02-15T01:01:32;34.03;;;24.38;;
24409;SDS011;12543;53.364;-1.504;2023-02-15T01:03:59;33.17;;;23.83;;
24409;SDS011;12543;53.364;-1.504;2023-02-15T01:06:28;32.80;;;23.85;;
24409;SDS011;12543;53.364;-1.504;2023-02-15T01:08:55;30.38;;;23.55;;
24409;SDS011;12543;53.364;-1.504;2023-02-15T01:11:22;29.55;;;22.35;;
24409;SDS011;12543;53.364;-1.504;2023-02-15T01:13:53;31.15;;;22.23;;
24409;SDS011;12543;53.364;-1.504;2023-02-15T01:16:23;34.03;;;23.13;;
24409;SDS011;12543;53.364;-1.504;2023-02-15T01:18:51;31.73;;;23.80;;
24409;SDS011;12543;53.364;-1.504;2023-02-15T01:21:21;32.17;;;23.42;;
24409;SDS011;12543;53.364;-1.504;2023-02-15T01:23:50;32.03;;;22.77;;
24409;SDS011;12543;53.364;-1.504;2023-02-15T01:26:18;29.80;;;21.80;;
24409;SDS011;12543;53.364;-1.504;2023-02-15T01:28:45;32.30;;;22.30;;
24409;SDS011;12543;53.364;-1.504;2023-02-15T01:31:14;28.50;;;21.20;;
24409;SDS011;12543;53.364;-1.504;2023-02-15T01:33:44;33.35;;;22.00;;
24409;SDS011;12543;53.364;-1.504;2023-02-15T01:36:12;32.53;;;22.90;;
24409;SDS011;12543;53.364;-1.504;2023-02-15T01:38:39;30.83;;;22.85;;
24409;SDS011;12543;53.364;-1.504;2023-02-15T01:41:08;29.30;;;22.02;;
24409;SDS011;12543;53.364;-1.504;2023-02-15T01:43:56;30.75;;;22.45;;
24409;SDS011;12543;53.364;-1.504;2023-02-15T01:46:30;31.13;;;21.92;;
24409;SDS011;12543;53.364;-1.504;2023-02-15T01:49:24;33.33;;;22.80;;
24409;SDS011;12543;53.364;-1.504;2023-02-15T01:51:51;33.22;;;23.90;;
24409;SDS011;12543;53.364;-1.504;2023-02-15T01:54:23;35.00;;;24.02;;
24409;SDS011;12543;53.364;-1.504;2023-02-15T01:57:03;34.70;;;23.92;;
24409;SDS011;12543;53.364;-1.504;2023-02-15T01:59:32;30.55;;;22.25;;
24409;SDS011;12543;53.364;-1.504;2023-02-15T02:02:03;30.48;;;21.95;;
24409;SDS011;12543;53.364;-1.504;2023-02-15T02:07:14;34.70;;;23.30;;
24409;SDS011;12543;53.364;-1.504;2023-02-15T02:09:44;31.52;;;23.98;;
24409;SDS011;12543;53.364;-1.504;2023-02-15T02:12:12;32.15;;;23.63;;
24409;SDS011;12543;53.364;-1.504;2023-02-15T02:14:40;31.42;;;22.58;;
24409;SDS011;12543;53.364;-1.504;2023-02-15T02:34:16;32.88;;;22.35;;
24409;SDS011;12543;53.364;-1.504;2023-02-15T02:36:59;32.58;;;22.70;;
24409;SDS011;12543;53.364;-1.504;2023-02-15T02:42:49;28.45;;;21.08;;
24409;SDS011;12543;53.364;-1.504;2023-02-15T02:45:35;35.35;;;25.95;;
24409;SDS011;12543;53.364;-1.504;2023-02-15T02:48:11;37.05;;;26.30;;
24409;SDS011;12543;53.364;-1.504;2023-02-15T02:50:41;32.63;;;23.73;;
24409;SDS011;12543;53.364;-1.504;2023-02-15T02:53:08;35.67;;;24.48;;
24409;SDS011;12543;53.364;-1.504;2023-02-15T02:55:56;31.33;;;23.20;;
24409;SDS011;12543;53.364;-1.504;2023-02-15T02:58:40;31.30;;;22.30;;
24409;SDS011;12543;53.364;-1.504;2023-02-15T03:01:25;34.58;;;23.73;;
24409;SDS011;12543;53.364;-1.504;2023-02-15T03:04:01;34.97;;;23.85;;
24409;SDS011;12543;53.364;-1.504;2023-02-15T03:09:27;33.95;;;23.33;;
24409;SDS011;12543;53.364;-1.504;2023-02-15T03:12:17;32.30;;;22.60;;
24409;SDS011;12543;53.364;-1.504;2023-02-15T03:14:49;27.67;;;20.23;;
24409;SDS011;12543;53.364;-1.504;2023-02-15T03:17:20;32.25;;;22.15;;
24409;SDS011;12543;53.364;-1.504;2023-02-15T03:19:50;33.83;;;24.33;;
24409;SDS011;12543;53.364;-1.504;2023-02-15T03:22:29;30.38;;;21.38;;
24409;SDS011;12543;53.364;-1.504;2023-02-15T03:25:04;28.60;;;21.38;;
24409;SDS011;12543;53.364;-1.504;2023-02-15T03:27:50;29.90;;;22.05;;
24409;SDS011;12543;53.364;-1.504;2023-02-15T03:30:22;26.92;;;19.10;;
24409;SDS011;12543;53.364;-1.504;2023-02-15T03:32:53;31.48;;;22.73;;
24409;SDS011;12543;53.364;-1.504;2023-02-15T03:35:23;33.20;;;22.58;;
24409;SDS011;12543;53.364;-1.504;2023-02-15T03:37:54;32.55;;;22.90;;
24409;SDS011;12543;53.364;-1.504;2023-02-15T03:40:28;30.40;;;21.83;;
24409;SDS011;12543;53.364;-1.504;2023-02-15T03:43:27;31.05;;;22.40;;
24409;SDS011;12543;53.364;-1.504;2023-02-15T03:46:12;31.27;;;21.65;;
24409;SDS011;12543;53.364;-1.504;2023-02-15T03:49:46;34.20;;;23.65;;
24409;SDS011;12543;53.364;-1.504;2023-02-15T03:52:04;29.17;;;21.58;;
24409;SDS011;12543;53.364;-1.504;2023-02-15T03:54:33;32.35;;;23.35;;
24409;SDS011;12543;53.364;-1.504;2023-02-15T04:00:22;34.67;;;24.48;;
24409;SDS011;12543;53.364;-1.504;2023-02-15T04:05:56;35.55;;;24.25;;
24409;SDS011;12543;53.364;-1.504;2023-02-15T04:08:23;33.50;;;23.30;;
24409;SDS011;12543;53.364;-1.504;2023-02-15T04:11:10;32.65;;;23.08;;
24409;SDS011;12543;53.364;-1.504;2023-02-15T04:13:37;30.63;;;22.35;;
24409;SDS011;12543;53.364;-1.504;2023-02-15T04:16:04;30.92;;;22.38;;
24409;SDS011;12543;53.364;-1.504;2023-02-15T04:18:39;31.52;;;21.90;;
24409;SDS011;12543;53.364;-1.504;2023-02-15T04:21:27;33.22;;;22.52;;
24409;SDS011;12543;53.364;-1.504;2023-02-15T04:24:15;32.45;;;22.35;;
24409;SDS011;12543;53.364;-1.504;2023-02-15T04:27:01;32.25;;;22.20;;
24409;SDS011;12543;53.364;-1.504;2023-02-15T04:29:29;32.70;;;22.52;;
24409;SDS011;12543;53.364;-1.504;2023-02-15T04:31:58;33.93;;;22.87;;
24409;SDS011;12543;53.364;-1.504;2023-02-15T04:34:28;32.88;;;23.42;;
24409;SDS011;12543;53.364;-1.504;2023-02-15T04:36:55;33.03;;;23.45;;
24409;SDS011;12543;53.364;-1.504;2023-02-15T04:39:22;33.85;;;24.63;;
24409;SDS011;12543;53.364;-1.504;2023-02-15T04:41:49;35.88;;;24.25;;
24409;SDS011;12543;53.364;-1.504;2023-02-15T04:44:17;33.30;;;24.00;;
24409;SDS011;12543;53.364;-1.504;2023-02-15T04:46:44;33.83;;;23.17;;
24409;SDS011;12543;53.364;-1.504;2023-02-15T04:49:11;35.55;;;24.67;;
24409;SDS011;12543;53.364;-1.504;2023-02-15T04:51:38;40.88;;;26.83;;
24409;SDS011;12543;53.364;-1.504;2023-02-15T04:54:05;36.30;;;25.02;;
24409;SDS011;12543;53.364;-1.504;2023-02-15T04:56:32;37.13;;;25.67;;
24409;SDS011;12543;53.364;-1.504;2023-02-15T05:01:28;41.45;;;27.50;;
24409;SDS011;12543;53.364;-1.504;2023-02-15T05:03:55;40.58;;;27.67;;
24409;SDS011;12543;53.364;-1.504;2023-02-15T05:06:23;35.95;;;26.10;;
24409;SDS011;12543;53.364;-1.504;2023-02-15T05:08:50;35.17;;;25.50;;
24409;SDS011;12543;53.364;-1.504;2023-02-15T05:11:17;37.28;;;26.92;;
24409;SDS011;12543;53.364;-1.504;2023-02-15T05:13:44;34.90;;;25.67;;
24409;SDS011;12543;53.364;-1.504;2023-02-15T05:16:11;34.20;;;24.55;;
24409;SDS011;12543;53.364;-1.504;2023-02-15T05:18:39;34.80;;;24.35;;
24409;SDS011;12543;53.364;-1.504;2023-02-15T05:21:06;32.97;;;23.25;;
24409;SDS011;12543;53.364;-1.504;2023-02-15T05:23:33;43.03;;;26.17;;
24409;SDS011;12543;53.364;-1.504;2023-02-15T05:26:00;39.92;;;26.40;;
24409;SDS011;12543;53.364;-1.504;2023-02-15T05:28:46;40.00;;;28.63;;
24409;SDS011;12543;53.364;-1.504;2023-02-15T05:31:14;42.28;;;27.70;;
24409;SDS011;12543;53.364;-1.504;2023-02-15T05:33:46;43.08;;;27.33;;
24409;SDS011;12543;53.364;-1.504;2023-02-15T05:36:13;45.97;;;30.70;;
24409;SDS011;12543;53.364;-1.504;2023-02-15T05:38:40;44.75;;;30.30;;
24409;SDS011;12543;53.364;-1.504;2023-02-15T05:41:08;38.92;;;28.27;;
24409;SDS011;12543;53.364;-1.504;2023-02-15T05:43:37;37.28;;;27.33;;
24409;SDS011;12543;53.364;-1.504;2023-02-15T05:46:05;40.15;;;28.70;;
24409;SDS011;12543;53.364;-1.504;2023-02-15T05:48:33;41.00;;;27.88;;
24409;SDS011;12543;53.364;-1.504;2023-02-15T05:53:29;44.92;;;29.92;;
24409;SDS011;12543;53.364;-1.504;2023-02-15T05:55:57;42.35;;;30.30;;
24409;SDS011;12543;53.364;-1.504;2023-02-15T05:58:28;39.55;;;27.80;;
24409;SDS011;12543;53.364;-1.504;2023-02-15T06:00:56;38.58;;;26.88;;
24409;SDS011;12543;53.364;-1.504;2023-02-15T06:03:24;37.85;;;27.42;;
24409;SDS011;12543;53.364;-1.504;2023-02-15T06:05:52;40.47;;;28.80;;
24409;SDS011;12543;53.364;-1.504;2023-02-15T06:08:19;41.95;;;28.20;;
24409;SDS011;12543;53.364;-1.504;2023-02-15T06:10:46;41.72;;;28.00;;
24409;SDS011;12543;53.364;-1.504;2023-02-15T06:13:14;37.47;;;26.58;;
24409;SDS011;12543;53.364;-1.504;2023-02-15T06:15:41;42.30;;;27.38;;
24409;SDS011;12543;53.364;-1.504;2023-02-15T06:18:09;39.58;;;28.30;;
24409;SDS011;12543;53.364;-1.504;2023-02-15T06:20:36;40.90;;;28.13;;
24409;SDS011;12543;53.364;-1.504;2023-02-15T06:23:03;43.25;;;29.65;;
24409;SDS011;12543;53.364;-1.504;2023-02-15T06:25:30;40.00;;;28.75;;
24409;SDS011;12543;53.364;-1.504;2023-02-15T06:27:58;42.33;;;28.30;;
24409;SDS011;12543;53.364;-1.504;2023-02-15T06:30:25;44.83;;;31.00;;
24409;SDS011;12543;53.364;-1.504;2023-02-15T06:32:52;38.85;;;27.33;;
24409;SDS011;12543;53.364;-1.504;2023-02-15T06:35:19;45.80;;;30.88;;
24409;SDS011;12543;53.364;-1.504;2023-02-15T06:37:48;43.35;;;30.48;;
24409;SDS011;12543;53.364;-1.504;2023-02-15T06:40:15;44.58;;;30.65;;
24409;SDS011;12543;53.364;-1.504;2023-02-15T06:42:42;44.97;;;30.52;;
24409;SDS011;12543;53.364;-1.504;2023-02-15T06:45:10;42.17;;;29.92;;
24409;SDS011;12543;53.364;-1.504;2023-02-15T06:47:37;42.17;;;30.00;;
24409;SDS011;12543;53.364;-1.504;2023-02-15T06:50:05;44.17;;;30.58;;
24409;SDS011;12543;53.364;-1.504;2023-02-15T06:52:33;50.17;;;31.17;;
24409;SDS011;12543;53.364;-1.504;2023-02-15T06:55:00;45.03;;;31.90;;
24409;SDS011;12543;53.364;-1.504;2023-02-15T06:57:28;46.47;;;31.25;;
24409;SDS011;12543;53.364;-1.504;2023-02-15T06:59:55;48.83;;;31.63;;
24409;SDS011;12543;53.364;-1.504;2023-02-15T07:02:24;44.20;;;31.10;;
24409;SDS011;12543;53.364;-1.504;2023-02-15T07:04:52;43.90;;;30.33;;
24409;SDS011;12543;53.364;-1.504;2023-02-15T07:07:22;44.72;;;30.92;;
24409;SDS011;12543;53.364;-1.504;2023-02-15T07:09:49;46.78;;;32.33;;
24409;SDS011;12543;53.364;-1.504;2023-02-15T07:12:16;46.88;;;32.38;;
24409;SDS011;12543;53.364;-1.504;2023-02-15T07:15:02;43.95;;;31.13;;
24409;SDS011;12543;53.364;-1.504;2023-02-15T07:17:32;48.15;;;32.78;;
24409;SDS011;12543;53.364;-1.504;2023-02-15T07:20:06;50.95;;;32.95;;
24409;SDS011;12543;53.364;-1.504;2023-02-15T07:22:38;49.10;;;31.98;;
24409;SDS011;12543;53.364;-1.504;2023-02-15T07:25:06;46.05;;;32.17;;
24409;SDS011;12543;53.364;-1.504;2023-02-15T07:27:34;48.50;;;33.15;;
24409;SDS011;12543;53.364;-1.504;2023-02-15T07:30:02;49.70;;;34.00;;
24409;SDS011;12543;53.364;-1.504;2023-02-15T07:32:31;53.05;;;34.28;;
24409;SDS011;12543;53.364;-1.504;2023-02-15T07:37:27;49.78;;;34.10;;
24409;SDS011;12543;53.364;-1.504;2023-02-15T07:39:54;49.67;;;33.50;;
24409;SDS011;12543;53.364;-1.504;2023-02-15T07:42:21;48.05;;;32.95;;
24409;SDS011;12543;53.364;-1.504;2023-02-15T07:44:49;45.15;;;32.00;;
24409;SDS011;12543;53.364;-1.504;2023-02-15T07:47:16;45.00;;;31.08;;
24409;SDS011;12543;53.364;-1.504;2023-02-15T07:49:43;44.83;;;31.38;;
24409;SDS011;12543;53.364;-1.504;2023-02-15T07:52:11;48.22;;;31.52;;
24409;SDS011;12543;53.364;-1.504;2023-02-15T07:54:38;48.05;;;33.50;;
24409;SDS011;12543;53.364;-1.504;2023-02-15T07:57:05;46.08;;;32.17;;
24409;SDS011;12543;53.364;-1.504;2023-02-15T07:59:32;44.30;;;30.60;;
24409;SDS011;12543;53.364;-1.504;2023-02-15T08:02:00;48.25;;;33.13;;
24409;SDS011;12543;53.364;-1.504;2023-02-15T08:04:27;50.63;;;33.30;;
24409;SDS011;12543;53.364;-1.504;2023-02-15T08:06:54;50.08;;;32.95;;
24409;SDS011;12543;53.364;-1.504;2023-02-15T08:09:21;49.75;;;34.95;;
24409;SDS011;12543;53.364;-1.504;2023-02-15T08:11:51;50.75;;;33.63;;
24409;SDS011;12543;53.364;-1.504;2023-02-15T08:14:19;49.67;;;33.72;;
24409;SDS011;12543;53.364;-1.504;2023-02-15T08:19:20;49.00;;;33.47;;
24409;SDS011;12543;53.364;-1.504;2023-02-15T08:22:02;52.45;;;34.28;;
24409;SDS011;12543;53.364;-1.504;2023-02-15T08:24:35;51.80;;;36.25;;
24409;SDS011;12543;53.364;-1.504;2023-02-15T08:27:04;52.58;;;35.72;;
24409;SDS011;12543;53.364;-1.504;2023-02-15T08:29:32;61.72;;;39.17;;
24409;SDS011;12543;53.364;-1.504;2023-02-15T08:32:03;57.38;;;37.83;;
24409;SDS011;12543;53.364;-1.504;2023-02-15T08:34:36;53.75;;;36.53;;
24409;SDS011;12543;53.364;-1.504;2023-02-15T08:37:05;57.97;;;38.70;;
24409;SDS011;12543;53.364;-1.504;2023-02-15T08:39:33;54.15;;;36.90;;
24409;SDS011;12543;53.364;-1.504;2023-02-15T08:42:00;48.97;;;34.25;;
24409;SDS011;12543;53.364;-1.504;2023-02-15T08:44:27;56.17;;;36.65;;
24409;SDS011;12543;53.364;-1.504;2023-02-15T08:46:54;52.85;;;37.00;;
24409;SDS011;12543;53.364;-1.504;2023-02-15T08:49:23;55.72;;;37.15;;
24409;SDS011;12543;53.364;-1.504;2023-02-15T08:51:51;54.25;;;36.40;;
24409;SDS011;12543;53.364;-1.504;2023-02-15T08:54:18;49.95;;;35.95;;
24409;SDS011;12543;53.364;-1.504;2023-02-15T08:56:47;50.20;;;36.60;;
24409;SDS011;12543;53.364;-1.504;2023-02-15T08:59:15;50.33;;;34.47;;
24409;SDS011;12543;53.364;-1.504;2023-02-15T09:01:48;52.72;;;34.72;;
24409;SDS011;12543;53.364;-1.504;2023-02-15T09:04:17;52.40;;;34.63;;
24409;SDS011;12543;53.364;-1.504;2023-02-15T09:06:45;51.20;;;34.73;;
24409;SDS011;12543;53.364;-1.504;2023-02-15T09:09:15;52.15;;;35.60;;
24409;SDS011;12543;53.364;-1.504;2023-02-15T09:11:44;50.00;;;33.88;;
24409;SDS011;12543;53.364;-1.504;2023-02-15T09:14:14;49.45;;;34.85;;
24409;SDS011;12543;53.364;-1.504;2023-02-15T09:16:43;45.13;;;31.80;;
24409;SDS011;12543;53.364;-1.504;2023-02-15T09:19:18;51.45;;;35.03;;
24409;SDS011;12543;53.364;-1.504;2023-02-15T09:21:47;53.85;;;37.08;;
24409;SDS011;12543;53.364;-1.504;2023-02-15T09:24:15;49.30;;;34.70;;
24409;SDS011;12543;53.364;-1.504;2023-02-15T09:26:43;51.47;;;36.05;;
24409;SDS011;12543;53.364;-1.504;2023-02-15T09:29:12;54.53;;;37.08;;
24409;SDS011;12543;53.364;-1.504;2023-02-15T09:31:41;49.20;;;33.40;;
24409;SDS011;12543;53.364;-1.504;2023-02-15T09:34:13;46.55;;;32.85;;
24409;SDS011;12543;53.364;-1.504;2023-02-15T09:36:44;48.38;;;31.40;;
24409;SDS011;12543;53.364;-1.504;2023-02-15T09:49:46;39.38;;;26.85;;
24409;SDS011;12543;53.364;-1.504;2023-02-15T09:52:35;44.42;;;28.45;;
24409;SDS011;12543;53.364;-1.504;2023-02-15T09:55:29;39.30;;;26.83;;
24409;SDS011;12543;53.364;-1.504;2023-02-15T10:06:40;44.65;;;27.98;;
24409;SDS011;12543;53.364;-1.504;2023-02-15T10:09:42;37.22;;;24.35;;
24409;SDS011;12543;53.364;-1.504;2023-02-15T10:21:16;41.58;;;27.08;;
24409;SDS011;12543;53.364;-1.504;2023-02-15T10:26:52;35.00;;;23.30;;
24409;SDS011;12543;53.364;-1.504;2023-02-15T10:34:35;33.70;;;23.35;;
24409;SDS011;12543;53.364;-1.504;2023-02-15T10:40:01;35.38;;;24.70;;
24409;SDS011;12543;53.364;-1.504;2023-02-15T10:51:26;32.22;;;22.95;;
24409;SDS011;12543;53.364;-1.504;2023-02-15T10:57:04;34.80;;;25.23;;
24409;SDS011;12543;53.364;-1.504;2023-02-15T11:05:18;33.65;;;24.83;;
24409;SDS011;12543;53.364;-1.504;2023-02-15T11:08:06;32.97;;;23.52;;
24409;SDS011;12543;53.364;-1.504;2023-02-15T11:23:49;28.35;;;21.40;;
24409;SDS011;12543;53.364;-1.504;2023-02-15T11:26:54;33.97;;;22.60;;
24409;SDS011;12543;53.364;-1.504;2023-02-15T11:29:38;30.45;;;20.67;;
24409;SDS011;12543;53.364;-1.504;2023-02-15T11:32:24;35.15;;;21.80;;
24409;SDS011;12543;53.364;-1.504;2023-02-15T11:35:02;27.80;;;19.53;;
24409;SDS011;12543;53.364;-1.504;2023-02-15T11:42:46;27.38;;;19.10;;
24409;SDS011;12543;53.364;-1.504;2023-02-15T11:47:54;27.75;;;19.55;;
24409;SDS011;12543;53.364;-1.504;2023-02-15T11:50:24;27.92;;;19.60;;
24409;SDS011;12543;53.364;-1.504;2023-02-15T11:53:06;28.60;;;19.42;;
24409;SDS011;12543;53.364;-1.504;2023-02-15T11:55:39;27.60;;;18.58;;
24409;SDS011;12543;53.364;-1.504;2023-02-15T12:04:09;27.20;;;19.00;;
24409;SDS011;12543;53.364;-1.504;2023-02-15T12:06:57;28.63;;;19.15;;
24409;SDS011;12543;53.364;-1.504;2023-02-15T12:09:46;24.05;;;16.80;;
24409;SDS011;12543;53.364;-1.504;2023-02-15T12:12:25;25.42;;;18.00;;
24409;SDS011;12543;53.364;-1.504;2023-02-15T12:15:14;31.98;;;19.30;;
24409;SDS011;12543;53.364;-1.504;2023-02-15T12:17:56;29.92;;;17.88;;
24409;SDS011;12543;53.364;-1.504;2023-02-15T12:20:32;23.38;;;17.02;;
24409;SDS011;12543;53.364;-1.504;2023-02-15T12:23:02;26.90;;;17.13;;
24409;SDS011;12543;53.364;-1.504;2023-02-15T12:28:20;27.15;;;17.98;;
24409;SDS011;12543;53.364;-1.504;2023-02-15T12:31:04;27.10;;;16.52;;
24409;SDS011;12543;53.364;-1.504;2023-02-15T12:33:47;20.98;;;15.55;;
24409;SDS011;12543;53.364;-1.504;2023-02-15T12:36:18;25.00;;;16.83;;
24409;SDS011;12543;53.364;-1.504;2023-02-15T12:41:46;22.58;;;15.73;;
24409;SDS011;12543;53.364;-1.504;2023-02-15T12:44:31;22.38;;;13.90;;
24409;SDS011;12543;53.364;-1.504;2023-02-15T12:49:27;22.55;;;13.68;;
24409;SDS011;12543;53.364;-1.504;2023-02-15T12:52:03;23.63;;;15.38;;
24409;SDS011;12543;53.364;-1.504;2023-02-15T12:54:41;21.27;;;14.48;;
24409;SDS011;12543;53.364;-1.504;2023-02-15T12:57:29;25.63;;;16.50;;
24409;SDS011;12543;53.364;-1.504;2023-02-15T13:00:02;28.00;;;15.20;;
24409;SDS011;12543;53.364;-1.504;2023-02-15T13:05:21;24.40;;;15.52;;
24409;SDS011;12543;53.364;-1.504;2023-02-15T13:08:00;26.25;;;16.30;;
24409;SDS011;12543;53.364;-1.504;2023-02-15T13:10:37;24.08;;;16.50;;
24409;SDS011;12543;53.364;-1.504;2023-02-15T13:13:10;25.30;;;15.07;;
24409;SDS011;12543;53.364;-1.504;2023-02-15T13:15:46;29.25;;;18.33;;
24409;SDS011;12543;53.364;-1.504;2023-02-15T13:18:34;25.48;;;16.88;;
24409;SDS011;12543;53.364;-1.504;2023-02-15T13:23:42;23.55;;;14.82;;
24409;SDS011;12543;53.364;-1.504;2023-02-15T13:26:15;24.10;;;16.45;;
24409;SDS011;12543;53.364;-1.504;2023-02-15T13:28:47;26.40;;;15.75;;
24409;SDS011;12543;53.364;-1.504;2023-02-15T13:31:18;26.90;;;15.75;;
24409;SDS011;12543;53.364;-1.504;2023-02-15T13:33:55;23.52;;;15.48;;
24409;SDS011;12543;53.364;-1.504;2023-02-15T13:39:22;24.83;;;15.77;;
24409;SDS011;12543;53.364;-1.504;2023-02-15T13:53:13;22.75;;;15.27;;
24409;SDS011;12543;53.364;-1.504;2023-02-15T14:12:58;26.88;;;15.90;;
24409;SDS011;12543;53.364;-1.504;2023-02-15T14:15:44;21.63;;;13.60;;
24409;SDS011;12543;53.364;-1.504;2023-02-15T14:31:50;18.88;;;11.93;;
24409;SDS011;12543;53.364;-1.504;2023-02-15T14:49:13;21.38;;;12.25;;
24409;SDS011;12543;53.364;-1.504;2023-02-15T14:54:10;18.00;;;11.07;;
24409;SDS011;12543;53.364;-1.504;2023-02-15T14:57:20;16.38;;;11.57;;
24409;SDS011;12543;53.364;-1.504;2023-02-15T14:59:50;21.80;;;12.80;;
24409;SDS011;12543;53.364;-1.504;2023-02-15T15:05:21;20.23;;;13.23;;
24409;SDS011;12543;53.364;-1.504;2023-02-15T15:07:54;16.05;;;11.88;;
24409;SDS011;12543;53.364;-1.504;2023-02-15T15:10:37;19.45;;;12.38;;
24409;SDS011;12543;53.364;-1.504;2023-02-15T15:18:50;19.70;;;12.20;;
24409;SDS011;12543;53.364;-1.504;2023-02-15T15:46:57;18.00;;;12.07;;
24409;SDS011;12543;53.364;-1.504;2023-02-15T15:49:45;15.13;;;11.40;;
24409;SDS011;12543;53.364;-1.504;2023-02-15T15:52:19;16.33;;;11.38;;
24409;SDS011;12543;53.364;-1.504;2023-02-15T15:54:48;15.35;;;11.70;;
24409;SDS011;12543;53.364;-1.504;2023-02-15T15:57:30;17.10;;;11.60;;
24409;SDS011;12543;53.364;-1.504;2023-02-15T16:00:05;16.25;;;11.90;;
24409;SDS011;12543;53.364;-1.504;2023-02-15T16:02:53;16.58;;;12.32;;
24409;SDS011;12543;53.364;-1.504;2023-02-15T16:05:22;16.13;;;11.43;;
24409;SDS011;12543;53.364;-1.504;2023-02-15T16:07:49;19.38;;;11.68;;
24409;SDS011;12543;53.364;-1.504;2023-02-15T16:12:46;18.70;;;11.85;;
24409;SDS011;12543;53.364;-1.504;2023-02-15T16:15:16;18.23;;;12.63;;
24409;SDS011;12543;53.364;-1.504;2023-02-15T16:17:48;17.55;;;12.68;;
24409;SDS011;12543;53.364;-1.504;2023-02-15T16:20:22;20.05;;;12.23;;
24409;SDS011;12543;53.364;-1.504;2023-02-15T16:28:52;16.73;;;11.70;;
24409;SDS011;12543;53.364;-1.504;2023-02-15T16:31:21;14.93;;;11.23;;
24409;SDS011;12543;53.364;-1.504;2023-02-15T16:33:51;18.85;;;13.00;;
24409;SDS011;12543;53.364;-1.504;2023-02-15T16:36:24;19.23;;;12.63;;
24409;SDS011;12543;53.364;-1.504;2023-02-15T16:41:24;16.77;;;11.02;;
24409;SDS011;12543;53.364;-1.504;2023-02-15T16:43:56;18.17;;;12.43;;
24409;SDS011;12543;53.364;-1.504;2023-02-15T16:46:36;18.50;;;12.60;;
24409;SDS011;12543;53.364;-1.504;2023-02-15T16:49:19;15.77;;;12.07;;
24409;SDS011;12543;53.364;-1.504;2023-02-15T16:51:56;15.65;;;11.20;;
24409;SDS011;12543;53.364;-1.504;2023-02-15T16:54:27;15.77;;;11.52;;
24409;SDS011;12543;53.364;-1.504;2023-02-15T16:57:00;17.38;;;11.93;;
24409;SDS011;12543;53.364;-1.504;2023-02-15T17:01:58;16.65;;;12.05;;
24409;SDS011;12543;53.364;-1.504;2023-02-15T17:04:29;15.95;;;10.98;;
24409;SDS011;12543;53.364;-1.504;2023-02-15T17:07:00;14.40;;;11.50;;
24409;SDS011;12543;53.364;-1.504;2023-02-15T17:09:31;15.05;;;10.98;;
24409;SDS011;12543;53.364;-1.504;2023-02-15T17:11:59;17.05;;;10.95;;
24409;SDS011;12543;53.364;-1.504;2023-02-15T17:14:29;14.10;;;11.27;;
24409;SDS011;12543;53.364;-1.504;2023-02-15T17:17:01;14.85;;;11.52;;
24409;SDS011;12543;53.364;-1.504;2023-02-15T17:22:19;16.77;;;11.68;;
24409;SDS011;12543;53.364;-1.504;2023-02-15T17:25:00;16.42;;;11.45;;
24409;SDS011;12543;53.364;-1.504;2023-02-15T17:27:30;16.25;;;12.43;;
24409;SDS011;12543;53.364;-1.504;2023-02-15T17:30:04;18.67;;;12.13;;
24409;SDS011;12543;53.364;-1.504;2023-02-15T17:32:54;15.73;;;11.65;;
24409;SDS011;12543;53.364;-1.504;2023-02-15T17:35:30;15.02;;;10.98;;
24409;SDS011;12543;53.364;-1.504;2023-02-15T17:38:15;14.40;;;10.77;;
24409;SDS011;12543;53.364;-1.504;2023-02-15T17:40:45;14.23;;;10.73;;
24409;SDS011;12543;53.364;-1.504;2023-02-15T17:43:12;10.18;;;8.40;;
24409;SDS011;12543;53.364;-1.504;2023-02-15T17:45:43;13.07;;;9.50;;
24409;SDS011;12543;53.364;-1.504;2023-02-15T17:48:22;12.45;;;9.45;;
24409;SDS011;12543;53.364;-1.504;2023-02-15T17:50:57;11.98;;;9.25;;
24409;SDS011;12543;53.364;-1.504;2023-02-15T17:53:27;12.18;;;9.55;;
24409;SDS011;12543;53.364;-1.504;2023-02-15T17:55:54;11.93;;;9.07;;
24409;SDS011;12543;53.364;-1.504;2023-02-15T17:58:21;10.35;;;8.32;;
24409;SDS011;12543;53.364;-1.504;2023-02-15T18:00:50;10.02;;;7.40;;
24409;SDS011;12543;53.364;-1.504;2023-02-15T18:03:48;10.43;;;7.05;;
24409;SDS011;12543;53.364;-1.504;2023-02-15T18:06:37;9.40;;;7.47;;
24409;SDS011;12543;53.364;-1.504;2023-02-15T18:09:25;11.50;;;7.82;;
24409;SDS011;12543;53.364;-1.504;2023-02-15T18:14:51;6.45;;;5.28;;
24409;SDS011;12543;53.364;-1.504;2023-02-15T18:17:24;7.40;;;5.75;;
24409;SDS011;12543;53.364;-1.504;2023-02-15T18:20:09;6.55;;;5.07;;
24409;SDS011;12543;53.364;-1.504;2023-02-15T18:22:44;6.57;;;4.53;;
24409;SDS011;12543;53.364;-1.504;2023-02-15T18:25:13;5.10;;;3.67;;
24409;SDS011;12543;53.364;-1.504;2023-02-15T18:27:41;5.97;;;3.92;;
24409;SDS011;12543;53.364;-1.504;2023-02-15T18:30:19;4.72;;;4.00;;
24409;SDS011;12543;53.364;-1.504;2023-02-15T18:32:49;5.80;;;3.92;;
24409;SDS011;12543;53.364;-1.504;2023-02-15T18:35:20;7.07;;;3.75;;
24409;SDS011;12543;53.364;-1.504;2023-02-15T18:37:49;5.50;;;3.97;;
24409;SDS011;12543;53.364;-1.504;2023-02-15T18:40:19;5.70;;;4.57;;
24409;SDS011;12543;53.364;-1.504;2023-02-15T18:42:48;6.07;;;4.22;;
24409;SDS011;12543;53.364;-1.504;2023-02-15T18:45:21;6.03;;;4.47;;
24409;SDS011;12543;53.364;-1.504;2023-02-15T18:47:54;6.90;;;4.85;;
24409;SDS011;12543;53.364;-1.504;2023-02-15T18:50:21;7.18;;;4.55;;
24409;SDS011;12543;53.364;-1.504;2023-02-15T18:52:52;9.10;;;4.50;;
24409;SDS011;12543;53.364;-1.504;2023-02-15T18:57:49;5.82;;;4.30;;